createdAt,value
2023-03-11T00:00:17.146Z,0
2023-03-11T00:05:16.706Z,0
2023-03-11T00:10:16.547Z,0
2023-03-11T00:15:16.669Z,0
2023-03-11T00:20:16.409Z,0
2023-03-11T00:25:16.662Z,0
2023-03-11T00:30:16.634Z,0
2023-03-11T00:35:16.658Z,0
2023-03-11T00:40:16.485Z,0
2023-03-11T00:45:16.598Z,0
2023-03-11T00:50:16.476Z,0
2023-03-11T00:55:16.622Z,0
2023-03-11T01:00:16.841Z,0
2023-03-11T01:05:16.636Z,0
2023-03-11T01:10:16.709Z,0
2023-03-11T01:15:17.148Z,0
2023-03-11T01:20:16.543Z,0
2023-03-11T01:25:16.676Z,0
2023-03-11T01:30:16.753Z,0
2023-03-11T01:35:16.833Z,0
2023-03-11T01:40:16.786Z,0
2023-03-11T01:45:17.072Z,0
2023-03-11T01:50:16.632Z,0
2023-03-11T01:55:16.760Z,0
2023-03-11T02:00:16.748Z,0
2023-03-11T02:05:16.804Z,0
2023-03-11T02:10:17.077Z,0
2023-03-11T02:15:16.792Z,0
2023-03-11T02:20:16.873Z,0
2023-03-11T02:25:16.720Z,0
2023-03-11T02:30:17.163Z,0
2023-03-11T02:35:16.810Z,0
2023-03-11T02:40:16.974Z,0
2023-03-11T02:45:17.052Z,0
2023-03-11T02:50:16.852Z,0
2023-03-11T02:55:17.101Z,0
2023-03-11T03:00:16.929Z,0
2023-03-11T03:05:17.046Z,0
2023-03-11T03:10:17.028Z,0
2023-03-11T03:15:17.508Z,0
2023-03-11T03:20:17.064Z,0
2023-03-11T03:25:17.053Z,0
2023-03-11T03:30:16.988Z,0
2023-03-11T03:35:17.033Z,0
2023-03-11T03:40:16.978Z,0
2023-03-11T03:45:17.784Z,0
2023-03-11T03:50:17.154Z,0
2023-03-11T03:55:17.326Z,0
2023-03-11T04:00:17.054Z,0
2023-03-11T04:05:17.316Z,0
2023-03-11T04:10:17.093Z,0
2023-03-11T04:15:17.233Z,0
2023-03-11T04:20:17.061Z,0
2023-03-11T04:25:17.810Z,0
2023-03-11T04:30:17.210Z,0
2023-03-11T04:35:17.132Z,0
2023-03-11T04:40:17.188Z,0
2023-03-11T04:45:17.318Z,0
2023-03-11T04:50:17.117Z,0
2023-03-11T04:55:17.141Z,0
2023-03-11T05:00:19.353Z,0
2023-03-11T05:05:16.264Z,0
2023-03-11T05:10:16.288Z,0
2023-03-11T05:15:16.640Z,0
2023-03-11T05:20:16.610Z,0
2023-03-11T05:25:16.535Z,0
2023-03-11T05:30:16.613Z,0
2023-03-11T05:35:16.521Z,0
2023-03-11T05:40:16.260Z,0
2023-03-11T05:45:16.455Z,0
2023-03-11T05:50:16.329Z,0
2023-03-11T05:55:16.347Z,0
2023-03-11T06:00:16.688Z,0
2023-03-11T06:05:16.543Z,0
2023-03-11T06:10:16.538Z,0
2023-03-11T06:15:17.068Z,0
2023-03-11T06:20:16.480Z,0
2023-03-11T06:25:16.721Z,0
2023-03-11T06:30:16.498Z,0
2023-03-11T06:35:16.576Z,0
2023-03-11T06:40:16.574Z,0
2023-03-11T06:45:18.904Z,0
2023-03-11T06:50:16.494Z,0
2023-03-11T06:55:16.544Z,0
2023-03-11T07:00:16.534Z,0
2023-03-11T07:05:16.642Z,0
2023-03-11T07:10:16.806Z,0
2023-03-11T07:15:20.206Z,0
2023-03-11T07:20:16.640Z,0
2023-03-11T07:25:16.622Z,0
2023-03-11T07:30:17.093Z,0
2023-03-11T07:35:16.792Z,0
2023-03-11T07:40:16.620Z,0
2023-03-11T07:45:16.838Z,0
2023-03-11T07:50:17.136Z,0
2023-03-11T07:55:16.799Z,0
2023-03-11T08:00:16.770Z,0
2023-03-11T08:05:16.712Z,0
2023-03-11T08:10:16.724Z,0
2023-03-11T08:15:16.918Z,0
2023-03-11T08:20:16.669Z,0
2023-03-11T08:25:16.920Z,0
2023-03-11T08:30:16.804Z,0
2023-03-11T08:35:16.901Z,0
2023-03-11T08:40:19.200Z,0
2023-03-11T08:45:17.345Z,0
2023-03-11T08:50:16.834Z,0
2023-03-11T08:55:16.863Z,0
2023-03-11T09:00:17.185Z,0
2023-03-11T09:05:16.989Z,0
2023-03-11T09:10:16.906Z,0
2023-03-11T09:15:18.556Z,0
2023-03-11T09:20:16.975Z,0
2023-03-11T09:25:17.045Z,0
2023-03-11T09:30:16.938Z,0
2023-03-11T09:35:17.194Z,0
2023-03-11T09:40:17.042Z,0
2023-03-11T09:45:16.911Z,0
2023-03-11T09:50:16.996Z,0
2023-03-11T09:55:17.503Z,0
2023-03-11T10:00:17.530Z,0
2023-03-11T10:05:17.360Z,0
2023-03-11T10:10:17.173Z,0
2023-03-11T10:15:17.241Z,0
2023-03-11T10:20:17.040Z,0
2023-03-11T10:25:17.131Z,0
2023-03-11T10:30:17.122Z,0
2023-03-11T10:35:17.169Z,0
2023-03-11T10:40:17.061Z,0
2023-03-11T10:45:17.791Z,0
2023-03-11T10:50:17.128Z,0
2023-03-11T10:55:17.224Z,0
2023-03-11T11:00:17.533Z,0
2023-03-11T11:05:17.391Z,0
2023-03-11T11:10:17.160Z,0
2023-03-11T11:15:17.753Z,0
2023-03-11T11:20:17.411Z,0
2023-03-11T11:25:17.222Z,2
2023-03-11T11:30:17.486Z,2
2023-03-11T11:35:17.612Z,6
2023-03-11T11:40:17.216Z,10
2023-03-11T11:45:17.416Z,10
2023-03-11T11:50:17.299Z,11
2023-03-11T11:55:17.941Z,14
2023-03-11T12:00:17.391Z,16
2023-03-11T12:05:17.893Z,15
2023-03-11T12:10:23.395Z,14
2023-03-11T12:15:17.793Z,11
2023-03-11T12:20:17.384Z,12
2023-03-11T12:25:17.658Z,18
2023-03-11T12:30:18.415Z,25
2023-03-11T12:35:17.532Z,25
2023-03-11T12:40:17.621Z,30
2023-03-11T12:45:17.594Z,35
2023-03-11T12:50:17.417Z,37
2023-03-11T12:55:17.538Z,38
2023-03-11T13:00:17.591Z,51
2023-03-11T13:05:18.083Z,70
2023-03-11T13:10:17.756Z,57
2023-03-11T13:15:17.674Z,72
2023-03-11T13:20:17.711Z,67
2023-03-11T13:25:18.492Z,74
2023-03-11T13:30:17.758Z,94
2023-03-11T13:35:18.293Z,66
2023-03-11T13:40:17.889Z,54
2023-03-11T13:45:18.565Z,61
2023-03-11T13:50:17.744Z,59
2023-03-11T14:05:18.144Z,103
2023-03-11T14:10:18.280Z,99
2023-03-11T14:15:18.435Z,113
2023-03-11T14:20:18.029Z,103
2023-03-11T14:25:18.158Z,143
2023-03-11T14:30:18.081Z,182
2023-03-11T14:35:18.503Z,167
2023-03-11T14:40:17.827Z,136
2023-03-11T14:45:18.736Z,101
2023-03-11T14:50:18.444Z,135
2023-03-11T14:55:18.217Z,103
2023-03-11T15:00:18.333Z,72
2023-03-11T15:05:18.443Z,104
2023-03-11T15:10:18.306Z,126
2023-03-11T15:15:18.452Z,114
2023-03-11T15:20:18.791Z,102
2023-03-11T15:25:18.437Z,82
2023-03-11T15:30:18.503Z,63
2023-03-11T15:35:18.450Z,78
2023-03-11T15:40:18.172Z,77
2023-03-11T15:45:18.897Z,96
2023-03-11T15:50:24.701Z,120
2023-03-11T15:55:18.605Z,123
2023-03-11T16:00:18.434Z,183
2023-03-11T16:05:18.592Z,167
2023-03-11T16:10:18.397Z,152
2023-03-11T16:15:18.916Z,160
2023-03-11T16:20:18.318Z,169
2023-03-11T16:25:18.472Z,132
2023-03-11T16:30:18.981Z,125
2023-03-11T16:35:18.581Z,103
2023-03-11T16:40:18.432Z,98
2023-03-11T16:45:18.691Z,102
2023-03-11T16:50:18.517Z,79
2023-03-11T16:55:18.906Z,63
2023-03-11T17:00:18.589Z,65
2023-03-11T17:05:19.032Z,67
2023-03-11T17:10:19.879Z,73
2023-03-11T17:15:16.310Z,61
2023-03-11T17:20:16.165Z,94
2023-03-11T17:25:16.280Z,158
2023-03-11T17:30:27.202Z,121
2023-03-11T17:35:16.288Z,115
2023-03-11T17:40:16.563Z,96
2023-03-11T17:45:16.473Z,109
2023-03-11T17:50:16.292Z,111
2023-03-11T17:55:16.343Z,108
2023-03-11T18:00:16.420Z,93
2023-03-11T18:05:18.659Z,95
2023-03-11T18:10:16.358Z,122
2023-03-11T18:15:16.735Z,137
2023-03-11T18:20:16.405Z,112
2023-03-11T18:25:16.537Z,136
2023-03-11T18:30:16.480Z,166
2023-03-11T18:35:16.587Z,233
2023-03-11T18:40:16.541Z,257
2023-03-11T18:45:17.354Z,238
2023-03-11T18:50:16.652Z,212
2023-03-11T18:55:16.570Z,144
2023-03-11T19:00:16.664Z,126
2023-03-11T19:05:16.749Z,97
2023-03-11T19:10:16.520Z,93
2023-03-11T19:15:17.006Z,95
2023-03-11T19:20:16.617Z,106
2023-03-11T19:25:16.631Z,95
2023-03-11T19:30:16.654Z,107
2023-03-11T19:35:16.680Z,83
2023-03-11T19:40:16.636Z,77
2023-03-11T19:45:16.760Z,82
2023-03-11T19:50:16.641Z,89
2023-03-11T19:55:16.888Z,77
2023-03-11T20:00:17.028Z,88
2023-03-11T20:05:16.772Z,102
2023-03-11T20:10:17.672Z,96
2023-03-11T20:15:16.780Z,66
2023-03-11T20:20:16.794Z,71
2023-03-11T20:25:17.039Z,70
2023-03-11T20:30:17.110Z,75
2023-03-11T20:35:16.852Z,72
2023-03-11T20:40:16.948Z,74
2023-03-11T20:45:16.943Z,55
2023-03-11T20:50:16.835Z,38
2023-03-11T20:55:17.300Z,36
2023-03-11T21:00:17.152Z,39
2023-03-11T21:05:17.219Z,58
2023-03-11T21:10:17.094Z,87
2023-03-11T21:15:17.924Z,85
2023-03-11T21:20:17.003Z,73
2023-03-11T21:25:17.120Z,73
2023-03-11T21:30:19.280Z,53
2023-03-11T21:35:19.125Z,40
2023-03-11T21:40:18.514Z,49
2023-03-11T21:45:18.597Z,48
2023-03-11T21:50:18.622Z,41
2023-03-11T21:55:18.552Z,38
2023-03-11T22:00:18.318Z,30
2023-03-11T22:05:19.202Z,19
2023-03-11T22:10:18.929Z,12
2023-03-11T22:15:18.851Z,9
2023-03-11T22:20:18.610Z,5
2023-03-11T22:25:18.482Z,3
2023-03-11T22:30:18.587Z,7
2023-03-11T22:35:18.585Z,6
2023-03-11T22:40:18.446Z,5
2023-03-11T22:45:19.221Z,0
2023-03-11T22:50:18.511Z,0
2023-03-11T22:55:18.596Z,0
2023-03-11T23:00:18.729Z,0
2023-03-11T23:05:18.729Z,0
2023-03-11T23:10:16.169Z,0
2023-03-11T23:15:16.314Z,0
2023-03-11T23:20:16.535Z,0
2023-03-11T23:25:16.276Z,0
2023-03-11T23:30:16.502Z,0
2023-03-11T23:35:16.302Z,0
2023-03-11T23:40:16.241Z,0
2023-03-11T23:45:16.383Z,0
2023-03-11T23:50:16.347Z,0
2023-03-11T23:55:16.869Z,0
